Nekoosa, WI

2:56 PM CDT on September 03, 2015 (GMT -0500)
Town of Saratoga | | Change Station
CLOSE
Current Station
Personal Weather Station
Location: Nekoosa, WI
Elevation: 972 ft
Nearby Weather Stations

Elev 972 ft 44.31 °N, 89.87 °W | Updated 18 hours ago

Mostly Cloudy
Mostly Cloudy
77 °F
Feels Like 77 °F
N
5
Wind Variable Wind from NNE
Gusts mph

Today
High -- | Low -- °F
--% Chance of Precip.
Yesterday
High -- | Low -- °F
Precip. -- in
6:24 AM 7:32 PM
Waning Gibbous, 67% visible
Pressure 29.96 in
Visibility 10.0 miles
Clouds Mostly Cloudy 2500 ft
Dew Point 65 °F
Humidity 67%
Rainfall in
Snow Depth Not available.
UV 4 out of 12
Pollen 6.40 out of 12
Air Quality Not available.
Flu Activity Not available.
SPECI KISW 031943Z AUTO 07006KT 10SM BKN025 27/18 A2996 RMK AO2 T02670183
Pressure 29.96 in
Visibility 10.0 miles
Clouds Mostly Cloudy 2500 ft
Dew Point 65 °F
Humidity 67%
Rainfall in
Snow Depth Not available.
UV 4 out of 12
Pollen 6.40 out of 12
Air Quality Not available.
Flu Activity Not available.
SPECI KISW 031943Z AUTO 07006KT 10SM BKN025 27/18 A2996 RMK AO2 T02670183

10-Day Weather Forecast

×

Almanac

Astronomy

Sep. 03, 2015 Rise Set
Actual Time
Civil Twilight
Nautical Twilight
Astronomical Twilight
Moon
Length of Visible Light
Length of Day
Tomorrow will be .
, % of the Moon is Illuminated

Today's Extremes

State Highs State Lows

Community

WunderPhotos

Upload Photos

1,852,017 photos uploaded!

WunderBlogs® & News

Nearby

Air Quality

  Air Quality AQ Index Pollutant
Not available.

Snow Depth

Station Depth Elevation

Earthquake Activity

City Distance Mag. Time & Date
Minimum magnitude displayed is 2.5.

Coastal Water Temperatures

Place Temperature

Stations

Nearby Weather Stations

Station Location Temp. Windchill Dew Point Humidity Wind Precip. Elev Updated Type